地図

経路データ

SID SEASON NUMBER BASIN SUBBASIN NAME ISO_TIME NATURE LAT LON WMO_WIND WMO_PRES WMO_AGENCY TRACK_TYPE DIST2LAND LANDFALL IFLAG USA_AGENCY USA_ATCF_ID USA_LAT USA_LON USA_RECORD USA_STATUS USA_WIND USA_PRES USA_SSHS USA_R34_NE USA_R34_SE USA_R34_SW USA_R34_NW USA_R50_NE USA_R50_SE USA_R50_SW USA_R50_NW USA_R64_NE USA_R64_SE USA_R64_SW USA_R64_NW USA_POCI USA_ROCI USA_RMW USA_EYE TOKYO_LAT TOKYO_LON TOKYO_GRADE TOKYO_WIND TOKYO_PRES TOKYO_R50_DIR TOKYO_R50_LONG TOKYO_R50_SHORT TOKYO_R30_DIR TOKYO_R30_LONG TOKYO_R30_SHORT TOKYO_LAND CMA_LAT CMA_LON CMA_CAT CMA_WIND CMA_PRES HKO_LAT HKO_LON HKO_CAT HKO_WIND HKO_PRES NEWDELHI_LAT NEWDELHI_LON NEWDELHI_GRADE NEWDELHI_WIND NEWDELHI_PRES NEWDELHI_CI NEWDELHI_DP NEWDELHI_POCI REUNION_LAT REUNION_LON REUNION_TYPE REUNION_WIND REUNION_PRES REUNION_TNUM REUNION_CI REUNION_RMW REUNION_R34_NE REUNION_R34_SE REUNION_R34_SW REUNION_R34_NW REUNION_R50_NE REUNION_R50_SE REUNION_R50_SW REUNION_R50_NW REUNION_R64_NE REUNION_R64_SE REUNION_R64_SW REUNION_R64_NW BOM_LAT BOM_LON BOM_TYPE BOM_WIND BOM_PRES BOM_TNUM BOM_CI BOM_RMW BOM_R34_NE BOM_R34_SE BOM_R34_SW BOM_R34_NW BOM_R50_NE BOM_R50_SE BOM_R50_SW BOM_R50_NW BOM_R64_NE BOM_R64_SE BOM_R64_SW BOM_R64_NW BOM_ROCI BOM_POCI BOM_EYE BOM_POS_METHOD BOM_PRES_METHOD NADI_LAT NADI_LON NADI_CAT NADI_WIND NADI_PRES WELLINGTON_LAT WELLINGTON_LON WELLINGTON_WIND WELLINGTON_PRES DS824_LAT DS824_LON DS824_STAGE DS824_WIND DS824_PRES TD9636_LAT TD9636_LON TD9636_STAGE TD9636_WIND TD9636_PRES TD9635_LAT TD9635_LON TD9635_WIND TD9635_PRES TD9635_ROCI NEUMANN_LAT NEUMANN_LON NEUMANN_CLASS NEUMANN_WIND NEUMANN_PRES MLC_LAT MLC_LON MLC_CLASS MLC_WIND MLC_PRES USA_GUST BOM_GUST BOM_GUST_PER REUNION_GUST REUNION_GUST_PER USA_SEAHGT USA_SEARAD_NE USA_SEARAD_SE USA_SEARAD_SW USA_SEARAD_NW STORM_SPEED STORM_DIR
1960242N12269 1960 61 EP MM ESTELLE 1960-08-29 00:00:00 TS 11.9000 -91.2000 75 hurdat_epa main 223 180 O________OO___ hurdat_epa EP051960 11.9000 -91.2000 HU 75 1 11.9000 -91.2000 TC 75 11.9000 -91.2000 4 13 316
1960242N12269 1960 61 EP MM ESTELLE 1960-08-29 03:00:00 TS 12.3574 -91.6473 main 171 150 P________PP___ EP051960 12.3551 -91.6373 HU 75 1 12.3551 -91.6373 TC 75 12.3665 -91.6875 4 13 315
1960242N12269 1960 61 EP MM ESTELLE 1960-08-29 06:00:00 TS 12.8032 -92.1142 75 hurdat_epa main 150 135 O________OP___ hurdat_epa EP051960 12.8000 -92.1000 HU 75 1 12.8000 -92.1000 TC 75 12.8160 -92.1708 4 13 313
1960242N12269 1960 61 EP MM ESTELLE 1960-08-29 09:00:00 TS 13.2245 -92.6088 main 141 132 P________PP___ EP051960 13.2225 -92.6000 HU 75 1 13.2225 -92.6000 TC 75 13.2325 -92.6437 4 13 310
1960242N12269 1960 61 EP MM ESTELLE 1960-08-29 12:00:00 TS 13.6000 -93.1000 75 hurdat_epa main 139 139 O________OO___ hurdat_epa EP051960 13.6000 -93.1000 HU 75 1 13.6000 -93.1000 TC 75 13.6000 -93.1000 4 12 308
1960242N12269 1960 61 EP MM ESTELLE 1960-08-29 15:00:00 TS 13.9311 -93.5536 main 155 147 P________PP___ EP051960 13.9374 -93.5576 HU 75 1 13.9374 -93.5576 TC 75 13.9062 -93.5374 4 11 304
1960242N12269 1960 61 EP MM ESTELLE 1960-08-29 18:00:00 TS 14.1908 -93.9941 75 hurdat_epa main 162 162 O________OP___ hurdat_epa EP051960 14.2000 -94.0000 HU 75 1 14.2000 -94.0000 TC 75 14.1541 -93.9706 4 10 298
1960242N12269 1960 61 EP MM ESTELLE 1960-08-29 21:00:00 TS 14.3798 -94.4258 main 178 176 P________PP___ EP051960 14.3873 -94.4276 HU 75 1 14.3873 -94.4276 TC 75 14.3499 -94.4185 4 9 289
1960242N12269 1960 61 EP MM ESTELLE 1960-08-30 00:00:00 TS 14.5000 -94.9000 75 hurdat_epa main 176 148 O________OO___ hurdat_epa EP051960 14.5000 -94.9000 HU 75 1 14.5000 -94.9000 TC 75 14.5000 -94.9000 4 10 280
1960242N12269 1960 61 EP MM ESTELLE 1960-08-30 03:00:00 TS 14.5690 -95.4825 main 144 123 P________PP___ EP051960 14.5576 -95.4852 HU 75 1 14.5576 -95.4852 TC 75 14.6145 -95.4720 4 12 276
1960242N12269 1960 61 EP MM ESTELLE 1960-08-30 06:00:00 TS 14.6176 -96.0946 75 hurdat_epa main 123 100 O________OP___ hurdat_epa EP051960 14.6000 -96.1000 HU 75 1 14.6000 -96.1000 TC 75 14.6882 -96.0731 4 12 277
1960242N12269 1960 61 EP MM ESTELLE 1960-08-30 09:00:00 TS 14.7025 -96.6825 main 101 99 P________PP___ EP051960 14.6925 -96.6874 HU 75 1 14.6925 -96.6874 TC 75 14.7427 -96.6626 4 11 280
1960242N12269 1960 61 EP MM ESTELLE 1960-08-30 12:00:00 TS 14.8000 -97.2000 75 hurdat_epa main 109 109 O________OO___ hurdat_epa EP051960 14.8000 -97.2000 HU 75 1 14.8000 -97.2000 TC 75 14.8000 -97.2000 4 9 283
1960242N12269 1960 61 EP MM ESTELLE 1960-08-30 15:00:00 TS 14.8940 -97.5717 main 119 111 P________PP___ EP051960 14.8997 -97.5726 HU 75 1 14.8997 -97.5726 TC 75 14.8708 -97.5684 4 7 286
1960242N12269 1960 61 EP MM ESTELLE 1960-08-30 18:00:00 TS 14.9905 -97.8983 75 hurdat_epa main 112 109 O________OP___ hurdat_epa EP051960 15.0000 -97.9000 HU 75 1 15.0000 -97.9000 TC 75 14.9525 -97.8914 4 7 286
1960242N12269 1960 61 EP MM ESTELLE 1960-08-30 21:00:00 TS 15.0732 -98.2350 main 109 109 P________PP___ EP051960 15.0770 -98.2329 HU 75 1 15.0770 -98.2329 TC 75 15.0580 -98.2436 4 8 285
1960242N12269 1960 61 EP MM ESTELLE 1960-08-31 00:00:00 TS 15.2000 -98.7000 75 hurdat_epa main 123 116 O________OO___ hurdat_epa EP051960 15.2000 -98.7000 HU 75 1 15.2000 -98.7000 TC 75 15.2000 -98.7000 4 12 287
1960242N12269 1960 61 EP MM ESTELLE 1960-08-31 03:00:00 TS 15.4337 -99.4368 main 132 119 P________PP___ EP051960 15.4353 -99.4472 HU 75 1 15.4353 -99.4472 TC 75 15.4272 -99.3950 4 16 288
1960242N12269 1960 61 EP MM ESTELLE 1960-08-31 06:00:00 TS 15.6965 -100.279 75 hurdat_epa main 128 128 O________OP___ hurdat_epa EP051960 15.7000 -100.300 HU 75 1 15.7000 -100.300 TC 75 15.6823 -100.195 4 17 287
1960242N12269 1960 61 EP MM ESTELLE 1960-08-31 09:00:00 TS 15.9281 -101.075 main 148 140 P________PP___ EP051960 15.9299 -101.087 HU 75 1 15.9299 -101.087 TC 75 15.9210 -101.023 4 15 285
1960242N12269 1960 61 EP MM ESTELLE 1960-08-31 12:00:00 TS 16.1000 -101.800 75 hurdat_epa main 153 153 O________OO___ hurdat_epa EP051960 16.1000 -101.800 HU 75 1 16.1000 -101.800 TC 75 16.1000 -101.800 4 13 281
1960242N12269 1960 61 EP MM ESTELLE 1960-08-31 15:00:00 TS 16.1815 -102.387 main 183 183 P________PP___ EP051960 16.1871 -102.380 HU 75 1 16.1871 -102.380 TC 75 16.1592 -102.416 4 11 275
1960242N12269 1960 61 EP MM ESTELLE 1960-08-31 18:00:00 TS 16.1916 -102.914 75 hurdat_epa main 200 200 O________OP___ hurdat_epa EP051960 16.2000 -102.900 HU 75 1 16.2000 -102.900 TC 75 16.1582 -102.969 4 10 268
1960242N12269 1960 61 EP MM ESTELLE 1960-08-31 21:00:00 TS 16.1515 -103.458 main 221 221 P________PP___ EP051960 16.1574 -103.450 HU 75 1 16.1574 -103.450 TC 75 16.1282 -103.487 4 10 265
1960242N12269 1960 61 EP MM ESTELLE 1960-09-01 00:00:00 TS 16.1000 -104.000 75 hurdat_epa main 249 249 O________OO___ hurdat_epa EP051960 16.1000 -104.000 HU 75 1 16.1000 -104.000 TC 75 16.1000 -104.000 4 11 266
1960242N12269 1960 61 EP MM ESTELLE 1960-09-01 03:00:00 TS 16.0865 -104.553 main 272 272 P________PP___ EP051960 16.0849 -104.550 HU 75 1 16.0849 -104.550 TC 75 16.0932 -104.563 4 11 270
1960242N12269 1960 61 EP MM ESTELLE 1960-09-01 06:00:00 TS 16.0995 -105.105 75 hurdat_epa main 299 299 O________OP___ hurdat_epa EP051960 16.1000 -105.100 HU 75 1 16.1000 -105.100 TC 75 16.0973 -105.123 4 11 273
1960242N12269 1960 61 EP MM ESTELLE 1960-09-01 09:00:00 TS 16.1335 -105.660 main 339 338 P________PP___ EP051960 16.1349 -105.658 HU 75 1 16.1349 -105.658 TC 75 16.1277 -105.672 4 11 275
1960242N12269 1960 61 EP MM ESTELLE 1960-09-01 12:00:00 TS 16.2000 -106.200 75 hurdat_epa main 366 366 O________OO___ hurdat_epa EP051960 16.2000 -106.200 HU 75 1 16.2000 -106.200 TC 75 16.2000 -106.200 4 10 278
1960242N12269 1960 61 EP MM ESTELLE 1960-09-01 15:00:00 TS 16.2782 -106.715 main 381 381 P________PP___ EP051960 16.2699 -106.715 HU 75 1 16.2699 -106.715 TC 75 16.3113 -106.717 4 10 283
1960242N12269 1960 61 EP MM ESTELLE 1960-09-01 18:00:00 TS 16.4134 -107.202 75 hurdat_epa main 403 401 O________OP___ hurdat_epa EP051960 16.4000 -107.200 HU 75 1 16.4000 -107.200 TC 75 16.4672 -107.210 4 10 291
1960242N12269 1960 61 EP MM ESTELLE 1960-09-01 21:00:00 TS 16.6288 -107.667 main 422 415 P________PP___ EP051960 16.6199 -107.665 HU 75 1 16.6199 -107.665 TC 75 16.6645 -107.673 4 10 299
1960242N12269 1960 61 EP MM ESTELLE 1960-09-02 00:00:00 TS 16.9000 -108.100 75 hurdat_epa main 430 429 O________OO___ hurdat_epa EP051960 16.9000 -108.100 HU 75 1 16.9000 -108.100 TC 75 16.9000 -108.100 4 10 304
1960242N12269 1960 61 EP MM ESTELLE 1960-09-02 03:00:00 TS 17.1883 -108.518 main 438 438 P________PP___ EP051960 17.1925 -108.523 HU 75 1 17.1925 -108.523 TC 75 17.1718 -108.498 4 10 308
1960242N12269 1960 61 EP MM ESTELLE 1960-09-02 06:00:00 TS 17.4954 -108.892 75 hurdat_epa main 452 452 O________OP___ hurdat_epa EP051960 17.5000 -108.900 HU 75 1 17.5000 -108.900 TC 75 17.4770 -108.860 4 9 312
1960242N12269 1960 61 EP MM ESTELLE 1960-09-02 09:00:00 TS 17.7927 -109.216 main 460 460 P________PP___ EP051960 17.7924 -109.223 HU 75 1 17.7924 -109.223 TC 75 17.7938 -109.192 4 8 316
1960242N12269 1960 61 EP MM ESTELLE 1960-09-02 12:00:00 TS 18.1000 -109.500 75 hurdat_epa main 471 466 O________OO___ hurdat_epa EP051960 18.1000 -109.500 HU 75 1 18.1000 -109.500 TC 75 18.1000 -109.500 4 8 322
1960242N12269 1960 61 EP MM ESTELLE 1960-09-02 15:00:00 TS 18.4596 -109.757 main 479 458 P________PP___ EP051960 18.4724 -109.750 HU 75 1 18.4724 -109.750 TC 75 18.4086 -109.784 4 8 325
1960242N12269 1960 61 EP MM ESTELLE 1960-09-02 18:00:00 TS 18.7794 -110.010 75 hurdat_epa main 458 436 O________OP___ hurdat_epa EP051960 18.8000 -110.000 HU 75 1 18.8000 -110.000 TC 75 18.6969 -110.050 4 7 316
1960242N12269 1960 61 EP MM ESTELLE 1960-09-02 21:00:00 TS 18.9893 -110.291 main 437 426 P________PP___ EP051960 19.0024 -110.285 HU 75 1 19.0024 -110.285 TC 75 18.9367 -110.315 4 6 300
1960242N12269 1960 61 EP MM ESTELLE 1960-09-03 00:00:00 TS 19.1000 -110.600 75 hurdat_epa main 429 429 O________OO___ hurdat_epa EP051960 19.1000 -110.600 HU 75 1 19.1000 -110.600 TC 75 19.1000 -110.600 4 6 283
1960242N12269 1960 61 EP MM ESTELLE 1960-09-03 03:00:00 TS 19.1348 -110.940 main 435 435 P________PP___ EP051960 19.1300 -110.943 HU 75 1 19.1300 -110.943 TC 75 19.1540 -110.929 4 7 271
1960242N12269 1960 61 EP MM ESTELLE 1960-09-03 06:00:00 TS 19.1065 -111.296 75 hurdat_epa main 445 445 O________OP___ hurdat_epa EP051960 19.1000 -111.300 HU 75 1 19.1000 -111.300 TC 75 19.1325 -111.278 4 7 264
1960242N12269 1960 61 EP MM ESTELLE 1960-09-03 09:00:00 TS 19.0599 -111.648 main 456 456 P________PP___ EP051960 19.0574 -111.650 HU 75 1 19.0574 -111.650 TC 75 19.0696 -111.638 4 7 261
1960242N12269 1960 61 EP MM ESTELLE 1960-09-03 12:00:00 TS 19.0000 -112.000 75 hurdat_epa main 483 483 O________OO___ hurdat_epa EP051960 19.0000 -112.000 HU 75 1 19.0000 -112.000 TC 75 19.0000 -112.000 4 7 261
1960242N12269 1960 61 EP MM ESTELLE 1960-09-03 15:00:00 TS 18.9521 -112.348 main 497 497 P________PP___ EP051960 18.9424 -112.350 HU 75 1 18.9424 -112.350 TC 75 18.9909 -112.342 4 7 263
1960242N12269 1960 61 EP MM ESTELLE 1960-09-03 18:00:00 TS 18.9159 -112.697 75 hurdat_epa main 527 527 O________OP___ hurdat_epa EP051960 18.9000 -112.700 HU 75 1 18.9000 -112.700 TC 75 18.9796 -112.685 4 7 267
1960242N12269 1960 61 EP MM ESTELLE 1960-09-03 21:00:00 TS 18.9166 -113.041 main 545 545 P________PP___ EP051960 18.9074 -113.042 HU 75 1 18.9074 -113.042 TC 75 18.9534 -113.035 4 7 269
1960242N12269 1960 61 EP MM ESTELLE 1960-09-04 00:00:00 TS 18.9000 -113.400 75 hurdat_epa main 569 569 O________OO___ hurdat_epa EP051960 18.9000 -113.400 HU 75 1 18.9000 -113.400 TC 75 18.9000 -113.400 4 7 262
1960242N12269 1960 61 EP MM ESTELLE 1960-09-04 03:00:00 TS 18.8163 -113.795 main 604 604 P________PP___ EP051960 18.8225 -113.793 HU 75 1 18.8225 -113.793 TC 75 18.7917 -113.806 4 8 255
1960242N12269 1960 61 EP MM ESTELLE 1960-09-04 06:00:00 TS 18.6916 -114.205 75 hurdat_epa main 641 641 O________OP___ hurdat_epa EP051960 18.7000 -114.200 HU 75 1 18.7000 -114.200 TC 75 18.6578 -114.223 4 8 251
1960242N12269 1960 61 EP MM ESTELLE 1960-09-04 09:00:00 TS 18.5440 -114.624 main 686 686 P________PP___ EP051960 18.5500 -114.623 HU 75 1 18.5500 -114.623 TC 75 18.5199 -114.628 4 8 249
1960242N12269 1960 61 EP MM ESTELLE 1960-09-04 12:00:00 TS 18.4000 -115.000 75 hurdat_epa main 723 723 O________OO___ hurdat_epa EP051960 18.4000 -115.000 HU 75 1 18.4000 -115.000 TC 75 18.4000 -115.000 4 7 247
1960242N12269 1960 61 EP MM ESTELLE 1960-09-04 15:00:00 TS 18.2810 -115.276 main 754 754 P________PP___ EP051960 18.2773 -115.265 HU 75 1 18.2773 -115.265 TC 75 18.2956 -115.319 4 5 248
1960242N12269 1960 61 EP MM ESTELLE 1960-09-04 18:00:00 TS 18.2034 -115.521 75 hurdat_epa main 777 777 O________OP___ hurdat_epa EP051960 18.2000 -115.500 HU 75 1 18.2000 -115.500 TC 75 18.2171 -115.603 4 5 257
1960242N12269 1960 61 EP MM ESTELLE 1960-09-04 21:00:00 TS 18.1660 -115.812 main 800 800 P________PP___ EP051960 18.1625 -115.800 HU 75 1 18.1625 -115.800 TC 75 18.1801 -115.860 4 6 270
1960242N12269 1960 61 EP MM ESTELLE 1960-09-05 00:00:00 TS 18.2000 -116.100 75 hurdat_epa main 824 824 O________OO___ hurdat_epa EP051960 18.2000 -116.100 HU 75 1 18.2000 -116.100 TC 75 18.2000 -116.100 4 5 286
1960242N12269 1960 61 EP MM ESTELLE 1960-09-05 03:00:00 TS 18.3205 -116.362 main 840 831 P________PP___ EP051960 18.3275 -116.365 HU 75 1 18.3275 -116.365 TC 75 18.2924 -116.351 4 6 301
1960242N12269 1960 61 EP MM ESTELLE 1960-09-05 06:00:00 TS 18.4880 -116.597 75 hurdat_epa main 834 831 O________OP___ hurdat_epa EP051960 18.5000 -116.600 HU 75 1 18.5000 -116.600 TC 75 18.4399 -116.587 4 5 307
1960242N12269 1960 61 EP MM ESTELLE 1960-09-05 09:00:00 TS 18.6435 -116.807 main 837 824 P________PP___ EP051960 18.6500 -116.808 HU 75 1 18.6500 -116.808 TC 75 18.6175 -116.804 4 5 309
1960242N12269 1960 61 EP MM ESTELLE 1960-09-05 12:00:00 TS 18.8000 -117.000 75 hurdat_epa main 831 828 O________OO___ hurdat_epa EP051960 18.8000 -117.000 HU 75 1 18.8000 -117.000 TC 75 18.8000 -117.000 4 5 308
1960242N12269 1960 61 EP MM ESTELLE 1960-09-05 15:00:00 TS 18.9435 -117.210 main 835 826 P________PP___ EP051960 18.9500 -117.215 HU 75 1 18.9500 -117.215 TC 75 18.9174 -117.188 4 5 308
1960242N12269 1960 61 EP MM ESTELLE 1960-09-05 18:00:00 TS 19.0880 -117.391 75 hurdat_epa main 830 829 O________OP___ hurdat_epa EP051960 19.1000 -117.400 HU 75 1 19.1000 -117.400 TC 75 19.0399 -117.353 4 4 313
1960242N12269 1960 61 EP MM ESTELLE 1960-09-05 21:00:00 TS 19.2145 -117.510 main 829 819 P________PP___ EP051960 19.2200 -117.515 HU 75 1 19.2200 -117.515 TC 75 19.1925 -117.491 4 4 328
1960242N12269 1960 61 EP MM ESTELLE 1960-09-06 00:00:00 TS 19.4000 -117.600 75 hurdat_epa main 819 802 O________OO___ hurdat_epa EP051960 19.4000 -117.600 HU 75 1 19.4000 -117.600 TC 75 19.4000 -117.600 4 5 340
1960242N12269 1960 61 EP MM ESTELLE 1960-09-06 03:00:00 TS 19.7161 -117.708 main 802 778 P________PP___ EP051960 19.7200 -117.715 HU 75 1 19.7200 -117.715 TC 75 19.7006 -117.683 4 7 346
1960242N12269 1960 61 EP MM ESTELLE 1960-09-06 06:00:00 TS 20.0910 -117.788 75 hurdat_epa main 778 756 O________OP___ hurdat_epa EP051960 20.1000 -117.800 HU 75 1 20.1000 -117.800 TC 75 20.0549 -117.738 4 7 353
1960242N12269 1960 61 EP MM ESTELLE 1960-09-06 09:00:00 TS 20.4524 -117.807 main 748 727 P________PP___ EP051960 20.4575 -117.815 HU 75 1 20.4575 -117.815 TC 75 20.4318 -117.774 4 7 0
1960242N12269 1960 61 EP MM ESTELLE 1960-09-06 12:00:00 TS 20.8000 -117.800 75 hurdat_epa main 727 706 O________OO___ hurdat_epa EP051960 20.8000 -117.800 HU 75 1 20.8000 -117.800 TC 75 20.8000 -117.800 4 7 0
1960242N12269 1960 61 EP MM ESTELLE 1960-09-06 15:00:00 TS 21.1089 -117.800 main 706 687 P________PP___ EP051960 21.1075 -117.793 HU 75 1 21.1075 -117.793 TC 75 21.1144 -117.832 4 6 0
1960242N12269 1960 61 EP MM ESTELLE 1960-09-06 18:00:00 TS 21.4030 -117.812 75 hurdat_epa main 687 668 O________OP___ hurdat_epa EP051960 21.4000 -117.800 HU 75 1 21.4000 -117.800 TC 75 21.4150 -117.858 4 6 355
1960242N12269 1960 61 EP MM ESTELLE 1960-09-06 21:00:00 TS 21.7016 -117.856 main 677 660 P________PP___ EP051960 21.7000 -117.850 HU 75 1 21.7000 -117.850 TC 75 21.7081 -117.879 4 6 352
1960242N12269 1960 61 EP MM ESTELLE 1960-09-07 00:00:00 TS 22.0000 -117.900 75 hurdat_epa main 660 644 O________OO___ hurdat_epa EP051960 22.0000 -117.900 HU 75 1 22.0000 -117.900 TC 75 22.0000 -117.900 4 6 356
1960242N12269 1960 61 EP MM ESTELLE 1960-09-07 03:00:00 TS 22.3024 -117.903 main 644 623 P________PP___ EP051960 22.3000 -117.900 HU 75 1 22.3000 -117.900 TC 75 22.3122 -117.917 4 6 0
1960242N12269 1960 61 EP MM ESTELLE 1960-09-07 06:00:00 TS 22.6045 -117.907 75 hurdat_epa main 623 595 O________OP___ hurdat_epa EP051960 22.6000 -117.900 HU 75 1 22.6000 -117.900 TC 75 22.6225 -117.935 4 6 356
1960242N12269 1960 61 EP MM ESTELLE 1960-09-07 09:00:00 TS 22.9103 -117.946 main 595 575 P________PP___ EP051960 22.9075 -117.942 HU 75 1 22.9075 -117.942 TC 75 22.9215 -117.961 4 6 351
1960242N12269 1960 61 EP MM ESTELLE 1960-09-07 12:00:00 TS 23.2000 -118.000 75 hurdat_epa main 575 557 O________OO___ hurdat_epa EP051960 23.2000 -118.000 HU 75 1 23.2000 -118.000 TC 75 23.2000 -118.000 4 6 351
1960242N12269 1960 61 EP MM ESTELLE 1960-09-07 15:00:00 TS 23.4572 -118.044 main 549 539 P________PP___ EP051960 23.4650 -118.043 HU 75 1 23.4650 -118.043 TC 75 23.4262 -118.049 4 5 348
1960242N12269 1960 61 EP MM ESTELLE 1960-09-07 18:00:00 TS 23.6870 -118.103 75 hurdat_epa main 539 530 O________OP___ hurdat_epa EP051960 23.7000 -118.100 HU 75 1 23.7000 -118.100 TC 75 23.6349 -118.113 4 4 343
1960242N12269 1960 61 EP MM ESTELLE 1960-09-07 21:00:00 TS 23.8782 -118.187 main 530 520 P________PP___ EP051960 23.8850 -118.185 HU 75 1 23.8850 -118.185 TC 75 23.8512 -118.196 4 5 336
1960242N12269 1960 61 EP MM ESTELLE 1960-09-08 00:00:00 TS 24.1000 -118.300 75 hurdat_epa main 520 500 O________OO___ hurdat_epa EP051960 24.1000 -118.300 HU 75 1 24.1000 -118.300 TC 75 24.1000 -118.300 4 6 338
1960242N12269 1960 61 EP MM ESTELLE 1960-09-08 03:00:00 TS 24.4280 -118.436 main 500 483 P________PP___ EP051960 24.4275 -118.442 HU 75 1 24.4275 -118.442 TC 75 24.4302 -118.408 4 7 339
1960242N12269 1960 61 EP MM ESTELLE 1960-09-08 06:00:00 TS 24.7985 -118.588 75 hurdat_epa main 483 468 O________OP___ hurdat_epa EP051960 24.8000 -118.600 HU 75 1 24.8000 -118.600 TC 75 24.7923 -118.540 4 8 340
1960242N12269 1960 61 EP MM ESTELLE 1960-09-08 09:00:00 TS 25.1636 -118.729 main 461 456 P________PP___ EP051960 25.1649 -118.735 HU 75 1 25.1649 -118.735 TC 75 25.1582 -118.702 4 8 338
1960242N12269 1960 61 EP MM ESTELLE 1960-09-08 12:00:00 TS 25.5000 -118.900 75 hurdat_epa main 458 452 O________OO___ hurdat_epa EP051960 25.5000 -118.900 HU 75 1 25.5000 -118.900 TC 75 25.5000 -118.900 4 7 329
1960242N12269 1960 61 EP MM ESTELLE 1960-09-08 15:00:00 TS 25.7677 -119.124 main 458 458 P________PP___ EP051960 25.7650 -119.128 HU 75 1 25.7650 -119.128 TC 75 25.7784 -119.111 4 7 319
1960242N12269 1960 61 EP MM ESTELLE 1960-09-08 18:00:00 TS 26.0059 -119.392 75 hurdat_epa main 475 475 O________OP___ hurdat_epa EP051960 26.0000 -119.400 HU 75 1 26.0000 -119.400 TC 75 26.0294 -119.361 4 7 315
1960242N12269 1960 61 EP MM ESTELLE 1960-09-08 21:00:00 TS 26.2530 -119.673 main 490 490 P________PP___ EP051960 26.2499 -119.678 HU 75 1 26.2499 -119.678 TC 75 26.2657 -119.655 4 7 312
1960242N12269 1960 61 EP MM ESTELLE 1960-09-09 00:00:00 TS 26.5000 -120.000 75 hurdat_epa main 512 512 O________OO___ hurdat_epa EP051960 26.5000 -120.000 HU 75 1 26.5000 -120.000 TC 75 26.5000 -120.000 4 8 308
1960242N12269 1960 61 EP MM ESTELLE 1960-09-09 03:00:00 TS 26.7483 -120.376 main 545 542 P________PP___ EP051960 26.7499 -120.370 HU 75 1 26.7499 -120.370 TC 75 26.7422 -120.398 4 9 305
1960242N12269 1960 61 EP MM ESTELLE 1960-09-09 06:00:00 TS 26.9983 -120.808 75 hurdat_epa main 577 577 O________OP___ hurdat_epa EP051960 27.0000 -120.800 HU 75 1 27.0000 -120.800 TC 75 26.9917 -120.840 4 10 302
1960242N12269 1960 61 EP MM ESTELLE 1960-09-09 09:00:00 TS 27.2494 -121.290 main 615 609 P________PP___ EP051960 27.2504 -121.285 HU 75 1 27.2504 -121.285 TC 75 27.2453 -121.312 4 10 300
1960242N12269 1960 61 EP MM ESTELLE 1960-09-09 12:00:00 TS 27.5000 -121.800 75 hurdat_epa main 642 O________OO___ hurdat_epa EP051960 27.5000 -121.800 HU 75 1 27.5000 -121.800 TC 75 27.5000 -121.800 4 10 299

IBTrACS Databaseについて

本データベースは、米国NOAAが公開する1842年以降の世界の熱帯低気圧のベストトラックデータアーカイブInternational Best Track Archive for Climate Stewardship (IBTrACS)を、ウェブで閲覧しやすい形式に変換したものです。

最終更新日:2021-12-08